Time;durP1;ratioP1;P1;durP2;ratioP2;P2;SDS_P1;SDS_P2;PMS_P1;PMS_P2;Temp;Humidity;BMP_temperature;BMP_pressure;BME280_temperature;BME280_humidity;BME280_pressure;Samples;Min_cycle;Max_cycle;Signal;HPM_P1;HPM_P2
2022/11/09 00:00:44;;;;;;;;;;;15.10;99.90;;;;;;5095890;28;19934;-81
2022/11/09 00:03:11;;;;;;;;;;;15.10;99.90;;;;;;5113082;28;19929;-80
2022/11/09 00:05:40;;;;;;;;;;;15.00;99.90;;;;;;5102625;28;19936;-81
2022/11/09 00:08:10;;;;;;;;;;;15.00;99.90;;;;;;5098762;28;19966;-81
2022/11/09 00:10:37;;;;;;;;;;;15.00;99.90;;;;;;5097511;28;19924;-80
2022/11/09 00:13:04;;;;;;;;;;;15.00;99.90;;;;;;5095898;28;20385;-80
2022/11/09 00:15:31;;;;;;;;;;;15.00;99.90;;;;;;5084339;28;20358;-80
2022/11/09 00:18:00;;;;;;;;;;;15.00;99.90;;;;;;5109281;28;20015;-80
2022/11/09 00:20:27;;;;;;;;;;;15.00;99.90;;;;;;5101050;28;20017;-81
2022/11/09 00:22:54;;;;;;;;;;;14.90;99.90;;;;;;5075529;28;19935;-80
2022/11/09 00:25:22;;;;;;;;;;;14.90;99.90;;;;;;5102603;28;19939;-81
2022/11/09 00:27:48;;;;;;;;;;;14.90;99.90;;;;;;5105106;28;19928;-81
2022/11/09 00:30:15;;;;;;;;;;;14.80;99.90;;;;;;5174436;22;19928;-81
2022/11/09 00:32:43;;;;;;;;;;;14.80;99.90;;;;;;5073182;28;19935;-79
2022/11/09 00:35:10;;;;;;;;;;;14.80;99.90;;;;;;5063134;28;19929;-81
2022/11/09 00:37:37;;;;;;;;;;;14.70;99.90;;;;;;5068894;28;20168;-80
2022/11/09 00:40:07;;;;;;;;;;;14.70;99.90;;;;;;5051902;28;20019;-80
2022/11/09 00:42:37;;;;;;;;;;;14.70;99.90;;;;;;5050601;28;19980;-81
2022/11/09 00:45:04;;;;;;;;;;;14.50;99.90;;;;;;5048239;28;19925;-80
2022/11/09 00:47:32;;;;;;;;;;;14.50;99.90;;;;;;5072884;28;19928;-79
2022/11/09 00:49:59;;;;;;;;;;;14.50;99.90;;;;;;5059925;28;19928;-78
2022/11/09 00:52:26;;;;;;;;;;;14.90;99.90;;;;;;5056777;28;19932;-79
2022/11/09 00:54:53;;;;;;;;;;;14.40;99.90;;;;;;5055084;28;20011;-80
2022/11/09 00:57:20;;;;;;;;;;;14.40;99.90;;;;;;5054418;28;19925;-79
2022/11/09 00:59:50;;;;;;;;;;;14.40;99.90;;;;;;5054878;28;19932;-80
2022/11/09 01:02:18;;;;;;;;;;;14.30;99.90;;;;;;5054639;28;19925;-80
2022/11/09 01:04:46;;;;;;;;;;;14.30;99.90;;;;;;5057012;28;20355;-80
2022/11/09 01:07:13;;;;;;;;;;;14.30;99.90;;;;;;5058482;28;19929;-80
2022/11/09 01:09:41;;;;;;;;;;;14.30;99.90;;;;;;5056210;28;19923;-80
2022/11/09 01:12:07;;;;;;;;;;;14.30;99.90;;;;;;5059307;28;20338;-80
2022/11/09 01:14:34;;;;;;;;;;;14.30;99.90;;;;;;5057642;28;19925;-81
2022/11/09 01:17:04;;;;;;;;;;;14.40;99.90;;;;;;5057832;28;20300;-80
2022/11/09 01:19:33;;;;;;;;;;;14.40;99.90;;;;;;5058143;28;19925;-80
2022/11/09 01:22:01;;;;;;;;;;;14.50;99.90;;;;;;5058366;28;19925;-79
2022/11/09 01:24:31;;;;;;;;;;;16.00;99.90;;;;;;5074373;28;19939;-78
2022/11/09 01:26:58;;;;;;;;;;;14.50;99.90;;;;;;5055255;28;19933;-79
2022/11/09 01:29:25;;;;;;;;;;;16.30;99.90;;;;;;5060721;28;19932;-76
2022/11/09 01:31:54;;;;;;;;;;;14.60;99.90;;;;;;5057799;28;20031;-78
2022/11/09 01:34:23;;;;;;;;;;;14.60;99.90;;;;;;5057005;28;19929;-77
2022/11/09 01:36:50;;;;;;;;;;;14.60;99.90;;;;;;5054522;28;19929;-79
2022/11/09 01:39:18;;;;;;;;;;;14.60;99.90;;;;;;5055040;28;19928;-79
2022/11/09 01:41:45;;;;;;;;;;;14.60;99.90;;;;;;5036508;28;19947;-80
2022/11/09 01:44:14;;;;;;;;;;;14.60;99.90;;;;;;5048952;28;20247;-80
2022/11/09 01:46:45;;;;;;;;;;;14.50;99.90;;;;;;5056314;28;19925;-80
2022/11/09 01:49:15;;;;;;;;;;;14.40;99.90;;;;;;5066372;28;19932;-80
2022/11/09 01:51:47;;;;;;;;;;;14.30;99.90;;;;;;5056594;28;20008;-80
2022/11/09 01:54:16;;;;;;;;;;;14.30;99.90;;;;;;5051443;28;19937;-78
2022/11/09 01:56:44;;;;;;;;;;;14.30;99.90;;;;;;5055105;28;20031;-78
2022/11/09 01:59:13;;;;;;;;;;;14.30;99.90;;;;;;5055664;28;19948;-77
2022/11/09 02:01:40;;;;;;;;;;;14.20;99.90;;;;;;5061439;28;19931;-79
2022/11/09 02:04:09;;;;;;;;;;;14.10;99.90;;;;;;5052330;28;19932;-79
2022/11/09 02:06:36;;;;;;;;;;;14.10;99.90;;;;;;5054367;28;20541;-79
2022/11/09 02:09:08;;;;;;;;;;;14.10;99.90;;;;;;5056526;28;20406;-78
2022/11/09 02:11:36;;;;;;;;;;;14.00;99.90;;;;;;5055456;28;20021;-78
2022/11/09 02:14:04;;;;;;;;;;;13.90;99.90;;;;;;5053159;28;19967;-78
2022/11/09 02:16:31;;;;;;;;;;;13.90;99.90;;;;;;5043969;28;19979;-77
2022/11/09 02:19:00;;;;;;;;;;;13.80;99.90;;;;;;5069721;28;19929;-78
2022/11/09 02:21:29;;;;;;;;;;;13.80;99.90;;;;;;5052584;28;20023;-77
2022/11/09 02:23:57;;;;;;;;;;;13.70;99.90;;;;;;5065207;28;19925;-78
2022/11/09 02:26:27;;;;;;;;;;;13.70;99.90;;;;;;5060199;28;20375;-78
2022/11/09 02:28:57;;;;;;;;;;;13.80;99.90;;;;;;5064813;28;20020;-80
2022/11/09 02:31:26;;;;;;;;;;;13.70;99.90;;;;;;5042262;28;19925;-79
2022/11/09 02:33:54;;;;;;;;;;;13.70;99.90;;;;;;5043641;28;19939;-77
2022/11/09 02:36:22;;;;;;;;;;;13.70;99.90;;;;;;5041746;28;19998;-78
2022/11/09 02:38:51;;;;;;;;;;;13.70;99.90;;;;;;5047902;28;19936;-78
2022/11/09 02:41:18;;;;;;;;;;;13.70;99.90;;;;;;5045696;28;19964;-80
2022/11/09 02:43:47;;;;;;;;;;;13.70;99.90;;;;;;5048576;28;19960;-78
2022/11/09 02:46:20;;;;;;;;;;;13.70;99.90;;;;;;5046193;28;19948;-78
2022/11/09 02:48:47;;;;;;;;;;;13.70;99.90;;;;;;5048382;28;19964;-78
2022/11/09 02:51:14;;;;;;;;;;;13.60;99.90;;;;;;5048431;28;19925;-79
2022/11/09 02:53:41;;;;;;;;;;;13.60;99.90;;;;;;5064842;28;20315;-78
2022/11/09 02:56:09;;;;;;;;;;;13.60;99.90;;;;;;5064936;28;19948;-79
2022/11/09 02:58:36;;;;;;;;;;;13.50;99.90;;;;;;5048873;28;20352;-78
2022/11/09 03:01:03;;;;;;;;;;;13.50;99.90;;;;;;5045343;28;19926;-78
2022/11/09 03:03:30;;;;;;;;;;;13.60;99.90;;;;;;5038476;28;19987;-80
2022/11/09 03:05:58;;;;;;;;;;;13.60;99.90;;;;;;5050916;28;19963;-80
2022/11/09 03:08:25;;;;;;;;;;;13.60;99.90;;;;;;5043165;28;20312;-78
2022/11/09 03:10:52;;;;;;;;;;;13.60;99.90;;;;;;5048831;28;19934;-79
2022/11/09 03:13:20;;;;;;;;;;;13.60;99.90;;;;;;5047646;28;20005;-78
2022/11/09 03:15:47;;;;;;;;;;;13.70;99.90;;;;;;5038538;28;19979;-77
2022/11/09 03:18:14;;;;;;;;;;;13.70;99.90;;;;;;5048096;28;20376;-77
2022/11/09 03:20:47;;;;;;;;;;;13.80;99.90;;;;;;5041414;28;19972;-78
2022/11/09 03:23:16;;;;;;;;;;;13.80;99.90;;;;;;5047905;28;19947;-79
2022/11/09 03:25:43;;;;;;;;;;;13.90;99.90;;;;;;5040239;28;20143;-79
2022/11/09 03:28:10;;;;;;;;;;;14.00;99.90;;;;;;5040238;28;19924;-79
2022/11/09 03:30:40;;;;;;;;;;;14.00;99.90;;;;;;5052197;28;20291;-80
2022/11/09 03:33:09;;;;;;;;;;;14.10;99.90;;;;;;5048974;28;19948;-83
2022/11/09 03:35:39;;;;;;;;;;;14.10;99.90;;;;;;5039766;28;19948;-80
2022/11/09 03:38:07;;;;;;;;;;;14.10;99.90;;;;;;5045314;28;19924;-79
2022/11/09 03:40:35;;;;;;;;;;;14.20;99.90;;;;;;5043966;28;19928;-79
2022/11/09 03:43:02;;;;;;;;;;;14.20;99.90;;;;;;5040808;28;20043;-78
2022/11/09 03:45:29;;;;;;;;;;;14.30;99.90;;;;;;5063792;28;19928;-78
2022/11/09 03:47:59;;;;;;;;;;;14.30;99.90;;;;;;5039778;28;20510;-79
2022/11/09 03:50:26;;;;;;;;;;;14.30;99.90;;;;;;5035152;28;19991;-80
2022/11/09 03:52:53;;;;;;;;;;;14.30;99.90;;;;;;5053154;28;19929;-78
2022/11/09 03:55:23;;;;;;;;;;;14.40;99.90;;;;;;5047871;28;19974;-78
2022/11/09 03:57:50;;;;;;;;;;;14.40;99.90;;;;;;5061607;28;20445;-77
2022/11/09 04:00:18;;;;;;;;;;;14.40;99.90;;;;;;5040108;28;19935;-77
2022/11/09 04:02:45;;;;;;;;;;;14.40;99.90;;;;;;5041966;28;20016;-77
2022/11/09 04:05:14;;;;;;;;;;;14.40;99.90;;;;;;5043245;28;19939;-77
2022/11/09 04:07:41;;;;;;;;;;;14.40;99.90;;;;;;5045396;28;19928;-80
2022/11/09 04:10:08;;;;;;;;;;;14.40;99.90;;;;;;5062872;28;19933;-78
2022/11/09 04:12:35;;;;;;;;;;;14.40;99.90;;;;;;5047454;28;19943;-79
2022/11/09 04:15:02;;;;;;;;;;;14.40;99.90;;;;;;5042839;28;20023;-77
2022/11/09 04:17:29;;;;;;;;;;;14.40;99.90;;;;;;5039816;28;19950;-80
2022/11/09 04:19:56;;;;;;;;;;;14.40;99.90;;;;;;5044891;28;19929;-80
2022/11/09 04:22:26;;;;;;;;;;;14.40;99.90;;;;;;5041625;28;19936;-78
2022/11/09 04:24:52;;;;;;;;;;;14.40;99.90;;;;;;5031735;28;20399;-82
2022/11/09 04:27:19;;;;;;;;;;;14.40;99.90;;;;;;5047105;28;19925;-78
2022/11/09 04:29:46;;;;;;;;;;;14.40;99.90;;;;;;5046282;28;20031;-80
2022/11/09 04:32:13;;;;;;;;;;;14.40;99.90;;;;;;5048034;28;19935;-78
2022/11/09 04:34:41;;;;;;;;;;;14.40;99.90;;;;;;5047484;28;19929;-78
2022/11/09 04:37:08;;;;;;;;;;;14.40;99.90;;;;;;5039776;28;19960;-77
2022/11/09 04:39:36;;;;;;;;;;;14.40;99.90;;;;;;5063708;28;19942;-80
2022/11/09 04:42:03;;;;;;;;;;;14.40;99.90;;;;;;5047395;28;19971;-78
2022/11/09 04:44:30;;;;;;;;;;;14.40;99.90;;;;;;5049328;28;19951;-81
2022/11/09 04:46:57;;;;;;;;;;;14.40;99.90;;;;;;5046249;28;19928;-79
2022/11/09 04:49:24;;;;;;;;;;;14.40;99.90;;;;;;5041115;28;20288;-78
2022/11/09 04:51:51;;;;;;;;;;;14.40;99.90;;;;;;5049925;28;19983;-79
2022/11/09 04:54:18;;;;;;;;;;;14.50;99.90;;;;;;5053670;28;20027;-78
2022/11/09 04:56:46;;;;;;;;;;;14.40;99.90;;;;;;5048594;28;20635;-80
2022/11/09 04:59:13;;;;;;;;;;;14.50;99.90;;;;;;5047647;28;19990;-81
2022/11/09 05:01:43;;;;;;;;;;;14.40;99.90;;;;;;5052645;28;19936;-78
2022/11/09 05:04:10;;;;;;;;;;;14.40;99.90;;;;;;5046195;28;19924;-79
2022/11/09 05:06:36;;;;;;;;;;;14.40;99.90;;;;;;5063344;28;19932;-79
2022/11/09 05:09:04;;;;;;;;;;;14.40;99.90;;;;;;5051512;28;20254;-78
2022/11/09 05:11:31;;;;;;;;;;;14.30;99.90;;;;;;5053495;28;20319;-78
2022/11/09 05:14:00;;;;;;;;;;;14.30;99.90;;;;;;5053555;28;19929;-77
2022/11/09 05:16:27;;;;;;;;;;;14.20;99.90;;;;;;5052741;28;19928;-78
2022/11/09 05:18:54;;;;;;;;;;;14.20;99.90;;;;;;5052179;28;20383;-78
2022/11/09 05:21:21;;;;;;;;;;;14.20;99.90;;;;;;5047516;28;19958;-79
2022/11/09 05:23:59;;;;;;;;;;;14.20;99.90;;;;;;5051573;28;19964;-79
2022/11/09 05:26:27;;;;;;;;;;;14.20;99.90;;;;;;5045910;28;20016;-80
2022/11/09 05:28:54;;;;;;;;;;;14.10;99.90;;;;;;5049453;28;19933;-78
2022/11/09 05:31:23;;;;;;;;;;;14.10;99.90;;;;;;5053480;28;19991;-80
2022/11/09 05:33:50;;;;;;;;;;;14.10;99.90;;;;;;5043917;28;19933;-80
2022/11/09 05:36:17;;;;;;;;;;;14.10;99.90;;;;;;5053267;28;19936;-78
2022/11/09 05:38:47;;;;;;;;;;;14.10;99.90;;;;;;5061277;28;19974;-78
2022/11/09 05:41:15;;;;;;;;;;;14.00;99.90;;;;;;5052415;28;19925;-80
2022/11/09 05:43:43;;;;;;;;;;;13.90;99.90;;;;;;5051803;28;20347;-79
2022/11/09 05:46:10;;;;;;;;;;;13.80;99.90;;;;;;5066350;28;20304;-80
2022/11/09 05:48:38;;;;;;;;;;;13.70;99.90;;;;;;5040244;28;20357;-79
2022/11/09 05:51:07;;;;;;;;;;;14.20;99.90;;;;;;5044035;28;19956;-77
2022/11/09 05:53:34;;;;;;;;;;;13.50;99.90;;;;;;5047061;28;19924;-77
2022/11/09 05:56:01;;;;;;;;;;;13.50;99.90;;;;;;5049793;28;20347;-78
2022/11/09 05:58:28;;;;;;;;;;;13.90;99.90;;;;;;5041777;28;19929;-77
2022/11/09 06:00:55;;;;;;;;;;;13.40;99.90;;;;;;5071079;28;19925;-79
2022/11/09 06:03:22;;;;;;;;;;;13.40;99.90;;;;;;5052768;28;19928;-79
2022/11/09 06:05:50;;;;;;;;;;;13.40;99.90;;;;;;5070216;28;20073;-80
2022/11/09 06:08:17;;;;;;;;;;;13.40;99.90;;;;;;5052939;28;20300;-79
2022/11/09 06:10:44;;;;;;;;;;;13.40;99.90;;;;;;5067302;28;19929;-79
2022/11/09 06:13:11;;;;;;;;;;;13.40;99.90;;;;;;5050291;28;19929;-80
2022/11/09 06:15:38;;;;;;;;;;;13.40;99.90;;;;;;5053520;28;20419;-80
2022/11/09 06:18:06;;;;;;;;;;;13.40;99.90;;;;;;5048804;28;19933;-79
2022/11/09 06:20:33;;;;;;;;;;;13.40;99.90;;;;;;5052212;28;19924;-80
2022/11/09 06:23:02;;;;;;;;;;;13.40;99.90;;;;;;5056215;28;19932;-80
2022/11/09 06:25:30;;;;;;;;;;;13.40;99.90;;;;;;5053854;28;19925;-80
2022/11/09 06:27:57;;;;;;;;;;;13.40;99.90;;;;;;5049240;28;19939;-82
2022/11/09 06:30:24;;;;;;;;;;;13.40;99.90;;;;;;5048598;28;19925;-80
2022/11/09 06:32:51;;;;;;;;;;;14.30;99.90;;;;;;5049654;28;19935;-79
2022/11/09 06:35:18;;;;;;;;;;;13.40;99.90;;;;;;5045043;28;20442;-78
2022/11/09 06:37:45;;;;;;;;;;;13.50;99.90;;;;;;5040937;28;19960;-82
2022/11/09 06:40:14;;;;;;;;;;;13.50;99.90;;;;;;5045666;28;20539;-81
2022/11/09 06:42:41;;;;;;;;;;;13.50;99.90;;;;;;5051278;28;19969;-81
2022/11/09 06:45:09;;;;;;;;;;;13.50;99.90;;;;;;5044100;28;20504;-79
2022/11/09 06:47:36;;;;;;;;;;;13.50;99.90;;;;;;5046432;28;19940;-79
2022/11/09 06:50:03;;;;;;;;;;;13.50;99.90;;;;;;5058536;28;19933;-79
2022/11/09 06:52:30;;;;;;;;;;;13.50;99.90;;;;;;5057973;28;19932;-79
2022/11/09 06:54:57;;;;;;;;;;;13.50;99.90;;;;;;5051673;28;19929;-79
2022/11/09 06:57:25;;;;;;;;;;;13.50;99.90;;;;;;5065451;28;19929;-79
2022/11/09 06:59:52;;;;;;;;;;;13.50;99.90;;;;;;5067209;28;19986;-79
2022/11/09 07:02:19;;;;;;;;;;;13.40;99.90;;;;;;5048512;28;19932;-79
2022/11/09 07:04:46;;;;;;;;;;;13.40;99.90;;;;;;5045959;28;19952;-78
2022/11/09 07:07:13;;;;;;;;;;;13.30;99.90;;;;;;5049316;28;20418;-80
2022/11/09 07:09:40;;;;;;;;;;;13.30;99.90;;;;;;5051286;28;19935;-79
2022/11/09 07:12:07;;;;;;;;;;;13.20;99.90;;;;;;5051967;28;19936;-80
2022/11/09 07:14:37;;;;;;;;;;;13.10;99.90;;;;;;5048234;28;19956;-80
2022/11/09 07:17:04;;;;;;;;;;;13.10;99.90;;;;;;5049406;28;20404;-80
2022/11/09 07:19:31;;;;;;;;;;;13.10;99.90;;;;;;5046197;28;19932;-80
2022/11/09 07:21:58;;;;;;;;;;;13.00;99.90;;;;;;5049272;28;19987;-81
2022/11/09 07:24:25;;;;;;;;;;;13.00;99.90;;;;;;5049888;28;19928;-78
2022/11/09 07:26:51;;;;;;;;;;;13.00;99.90;;;;;;5065508;28;19974;-78
2022/11/09 07:29:18;;;;;;;;;;;12.90;99.90;;;;;;5064760;28;19924;-78
2022/11/09 07:31:47;;;;;;;;;;;12.90;99.90;;;;;;5045103;28;19932;-81
2022/11/09 07:34:14;;;;;;;;;;;12.90;99.90;;;;;;5045603;28;19929;-79
2022/11/09 07:36:41;;;;;;;;;;;12.80;99.90;;;;;;5060966;28;19946;-79
2022/11/09 07:39:07;;;;;;;;;;;12.90;99.90;;;;;;5040182;28;19970;-79
2022/11/09 07:41:34;;;;;;;;;;;12.90;99.90;;;;;;5065205;28;19925;-78
2022/11/09 07:44:01;;;;;;;;;;;13.00;99.90;;;;;;5063921;28;19932;-78
2022/11/09 07:46:28;;;;;;;;;;;13.00;99.90;;;;;;5046701;28;19925;-79
2022/11/09 07:48:56;;;;;;;;;;;13.20;99.90;;;;;;5056834;28;19928;-79
2022/11/09 07:51:23;;;;;;;;;;;13.30;99.90;;;;;;5065333;28;19983;-79
2022/11/09 07:53:51;;;;;;;;;;;;;;;;;;5048052;28;19936;-80
2022/11/09 07:56:17;;;;;;;;;;;13.60;99.90;;;;;;5053592;28;19932;-79
2022/11/09 07:58:49;;;;;;;;;;;13.70;99.90;;;;;;5065700;28;20021;-79
2022/11/09 08:01:16;;;;;;;;;;;13.90;99.90;;;;;;5045030;28;19940;-79
2022/11/09 08:03:42;;;;;;;;;;;14.90;99.90;;;;;;5045499;28;19932;-79
2022/11/09 08:06:11;;;;;;;;;;;14.30;99.90;;;;;;5045475;28;19929;-80
2022/11/09 08:08:38;;;;;;;;;;;14.60;99.90;;;;;;5057298;28;19928;-78
2022/11/09 08:11:05;;;;;;;;;;;14.70;99.90;;;;;;5054463;28;19924;-79
2022/11/09 08:13:32;;;;;;;;;;;14.80;99.90;;;;;;5049535;28;19972;-79
2022/11/09 08:16:00;;;;;;;;;;;14.70;99.90;;;;;;5057203;28;19959;-79
2022/11/09 08:18:30;;;;;;;;;;;14.70;99.90;;;;;;5050670;28;19928;-79
2022/11/09 08:20:57;;;;;;;;;;;14.70;99.90;;;;;;5050629;28;20292;-79
2022/11/09 08:23:25;;;;;;;;;;;14.70;99.90;;;;;;5048134;28;20006;-80
2022/11/09 08:25:52;;;;;;;;;;;14.70;99.90;;;;;;5047190;28;19929;-79
2022/11/09 08:28:19;;;;;;;;;;;14.70;99.90;;;;;;5052338;28;19932;-79
2022/11/09 08:30:46;;;;;;;;;;;14.70;99.90;;;;;;5049561;28;19925;-79
2022/11/09 08:33:16;;;;;;;;;;;14.70;99.90;;;;;;5051090;28;19925;-79
2022/11/09 08:35:43;;;;;;;;;;;14.80;99.90;;;;;;5060475;28;20017;-80
2022/11/09 08:38:10;;;;;;;;;;;14.80;99.90;;;;;;5049512;28;19933;-80
2022/11/09 08:40:38;;;;;;;;;;;14.80;99.90;;;;;;5049675;28;19935;-81
2022/11/09 08:43:08;;;;;;;;;;;14.70;99.90;;;;;;5045261;28;19928;-81
2022/11/09 08:45:36;;;;;;;;;;;14.80;99.90;;;;;;5043089;28;19936;-81
2022/11/09 08:48:03;;;;;;;;;;;14.70;99.90;;;;;;5046178;28;20024;-81
2022/11/09 08:50:30;;;;;;;;;;;14.70;99.90;;;;;;5054637;28;19925;-81
2022/11/09 08:52:57;;;;;;;;;;;14.70;99.90;;;;;;5048417;28;19929;-81
2022/11/09 08:55:24;;;;;;;;;;;14.80;99.90;;;;;;5049998;28;20006;-81
2022/11/09 08:57:54;;;;;;;;;;;14.80;99.90;;;;;;5049411;28;20396;-81
2022/11/09 09:00:22;;;;;;;;;;;14.80;99.90;;;;;;5036639;28;19966;-80
2022/11/09 09:02:49;;;;;;;;;;;14.90;99.90;;;;;;5047989;28;20323;-81
2022/11/09 09:05:16;;;;;;;;;;;14.90;99.90;;;;;;5045518;28;19933;-81
2022/11/09 09:07:43;;;;;;;;;;;15.00;99.90;;;;;;5048838;28;20415;-81
2022/11/09 09:10:10;;;;;;;;;;;15.10;99.90;;;;;;5041955;28;19932;-80
2022/11/09 09:12:37;;;;;;;;;;;15.10;99.90;;;;;;5043347;28;19929;-81
2022/11/09 09:15:06;;;;;;;;;;;15.30;99.90;;;;;;5044744;28;20412;-81
2022/11/09 09:17:34;;;;;;;;;;;15.30;99.90;;;;;;5043528;28;19996;-81
2022/11/09 09:20:01;;;;;;;;;;;15.40;99.90;;;;;;5049282;28;19959;-81
2022/11/09 09:22:28;;;;;;;;;;;15.60;99.90;;;;;;5039806;28;19979;-81
2022/11/09 09:24:55;;;;;;;;;;;15.80;99.90;;;;;;5037432;28;20455;-81
2022/11/09 09:27:21;;;;;;;;;;;15.80;99.90;;;;;;5045098;28;20320;-80
2022/11/09 09:29:48;;;;;;;;;;;15.90;99.90;;;;;;5046464;28;20038;-80
2022/11/09 09:32:17;;;;;;;;;;;15.90;99.90;;;;;;5042338;28;19936;-80
2022/11/09 09:34:43;;;;;;;;;;;15.90;99.90;;;;;;5041991;28;19987;-80
2022/11/09 09:37:11;;;;;;;;;;;16.10;99.90;;;;;;5039134;28;20475;-80
2022/11/09 09:39:38;;;;;;;;;;;16.20;99.90;;;;;;5055042;28;20423;-80
2022/11/09 09:42:07;;;;;;;;;;;16.40;99.90;;;;;;5045416;28;19932;-79
2022/11/09 09:44:42;;;;;;;;;;;16.50;99.90;;;;;;5046862;28;19937;-79
2022/11/09 09:47:11;;;;;;;;;;;16.60;99.90;;;;;;5049638;28;19937;-78
2022/11/09 09:49:42;;;;;;;;;;;16.70;99.90;;;;;;5045163;28;20331;-79
2022/11/09 09:52:15;;;;;;;;;;;16.90;99.90;;;;;;5045903;28;19932;-79
2022/11/09 09:54:44;;;;;;;;;;;17.00;99.90;;;;;;5049936;28;19948;-79
2022/11/09 09:57:13;;;;;;;;;;;17.00;99.90;;;;;;5060069;28;19986;-78
2022/11/09 09:59:41;;;;;;;;;;;17.00;99.90;;;;;;5050086;28;19925;-78
2022/11/09 10:02:11;;;;;;;;;;;17.10;99.90;;;;;;5049293;28;19968;-78
2022/11/09 10:04:41;;;;;;;;;;;17.20;99.90;;;;;;5042302;28;19975;-78
2022/11/09 10:07:13;;;;;;;;;;;17.20;99.90;;;;;;5049329;28;19929;-79
2022/11/09 10:09:47;;;;;;;;;;;17.20;99.90;;;;;;5053514;28;19974;-79
2022/11/09 10:12:19;;;;;;;;;;;17.20;99.90;;;;;;5043014;28;19935;-79
2022/11/09 10:15:06;;;;;;;;;;;17.30;99.90;;;;;;5052718;28;19933;-79
2022/11/09 10:17:38;;;;;;;;;;;17.30;99.90;;;;;;5047489;28;19991;-80
2022/11/09 10:20:14;;;;;;;;;;;17.30;99.90;;;;;;5046950;28;20388;-79
2022/11/09 10:22:58;;;;;;;;;;;17.20;99.90;;;;;;5053397;28;19932;-79
2022/11/09 10:25:26;;;;;;;;;;;17.20;99.90;;;;;;5044839;28;19929;-80
2022/11/09 10:27:54;;;;;;;;;;;17.20;99.90;;;;;;5047907;28;19933;-80
2022/11/09 10:30:22;;;;;;;;;;;17.20;99.90;;;;;;5046666;28;19933;-79
2022/11/09 10:32:51;;;;;;;;;;;17.20;99.90;;;;;;5042374;28;19933;-79
2022/11/09 10:35:19;;;;;;;;;;;17.20;99.90;;;;;;5051650;28;19924;-79
2022/11/09 10:37:49;;;;;;;;;;;17.30;99.90;;;;;;5049558;28;19925;-79
2022/11/09 10:40:20;;;;;;;;;;;17.40;99.90;;;;;;5050798;28;19935;-80
2022/11/09 10:43:06;;;;;;;;;;;17.50;99.90;;;;;;5046845;28;20160;-79
2022/11/09 10:45:58;;;;;;;;;;;17.50;99.90;;;;;;5043859;28;19936;-80
2022/11/09 10:48:43;;;;;;;;;;;17.60;99.90;;;;;;5049098;28;20003;-79
2022/11/09 10:51:31;;;;;;;;;;;17.70;99.90;;;;;;5045981;28;19940;-78
2022/11/09 10:54:20;;;;;;;;;;;17.80;99.90;;;;;;5048467;28;19960;-78
2022/11/09 10:57:12;;;;;;;;;;;17.80;99.90;;;;;;5046963;28;19940;-79
2022/11/09 10:59:58;;;;;;;;;;;17.70;99.90;;;;;;5036460;28;20074;-79
2022/11/09 11:02:47;;;;;;;;;;;17.70;99.90;;;;;;5035104;28;19995;-79
2022/11/09 11:05:33;;;;;;;;;;;17.60;99.90;;;;;;5051044;28;20390;-79
2022/11/09 11:08:24;;;;;;;;;;;17.50;99.90;;;;;;5050793;28;20103;-79
2022/11/09 11:11:26;;;;;;;;;;;17.50;99.90;;;;;;5050923;28;20391;-79
2022/11/09 11:14:16;;;;;;;;;;;17.50;99.90;;;;;;5048463;28;19936;-78
2022/11/09 11:17:05;;;;;;;;;;;17.50;99.90;;;;;;5033551;28;19940;-79
2022/11/09 11:19:50;;;;;;;;;;;17.50;99.90;;;;;;5048613;28;20580;-80
2022/11/09 11:22:36;;;;;;;;;;;17.50;99.90;;;;;;5043729;28;20399;-79
2022/11/09 11:25:23;;;;;;;;;;;17.80;99.90;;;;;;5041805;28;19940;-79
2022/11/09 11:28:15;;;;;;;;;;;17.90;99.90;;;;;;5045252;28;19936;-79
2022/11/09 11:31:01;;;;;;;;;;;18.00;99.90;;;;;;5049941;28;19936;-79
2022/11/09 11:33:46;;;;;;;;;;;18.10;99.90;;;;;;5052510;28;19936;-80
2022/11/09 11:36:38;;;;;;;;;;;18.10;99.90;;;;;;5053232;28;20398;-79
2022/11/09 11:39:33;;;;;;;;;;;18.10;99.90;;;;;;5059946;28;19947;-79
2022/11/09 11:42:29;;;;;;;;;;;18.10;99.90;;;;;;5046740;28;20233;-78
2022/11/09 11:45:18;;;;;;;;;;;18.20;99.90;;;;;;5050683;28;19935;-78
2022/11/09 11:48:31;;;;;;;;;;;18.20;99.90;;;;;;5046081;28;20010;-79
2022/11/09 11:51:18;;;;;;;;;;;18.20;99.90;;;;;;5052633;28;19950;-78
2022/11/09 11:54:09;;;;;;;;;;;18.20;99.90;;;;;;5038973;28;19990;-78
2022/11/09 11:56:59;;;;;;;;;;;18.20;99.90;;;;;;5047605;28;19947;-77
2022/11/09 11:59:59;;;;;;;;;;;18.20;99.90;;;;;;5048921;28;20005;-78
2022/11/09 12:03:00;;;;;;;;;;;18.10;99.90;;;;;;5048234;28;19953;-77
2022/11/09 12:05:59;;;;;;;;;;;18.10;99.90;;;;;;5050912;28;19935;-78
2022/11/09 12:08:51;;;;;;;;;;;18.20;99.90;;;;;;5041331;28;19932;-78
2022/11/09 12:11:43;;;;;;;;;;;18.10;99.90;;;;;;5051183;28;19940;-79
2022/11/09 12:14:34;;;;;;;;;;;18.10;99.90;;;;;;5046632;28;20360;-79
2022/11/09 12:17:25;;;;;;;;;;;18.00;99.90;;;;;;5049885;28;19931;-78
2022/11/09 12:20:17;;;;;;;;;;;17.90;99.90;;;;;;5051425;28;19939;-78
2022/11/09 12:23:16;;;;;;;;;;;18.00;99.90;;;;;;5048913;28;19991;-79
2022/11/09 12:26:08;;;;;;;;;;;17.90;99.90;;;;;;5049068;28;20122;-78
2022/11/09 12:29:03;;;;;;;;;;;17.90;99.90;;;;;;5047143;28;19940;-79
2022/11/09 12:31:57;;;;;;;;;;;18.00;99.90;;;;;;5050682;28;19990;-79
2022/11/09 12:34:46;;;;;;;;;;;18.10;99.90;;;;;;5049800;28;19940;-79
2022/11/09 12:37:36;;;;;;;;;;;17.60;99.90;;;;;;5051451;28;20309;-79
2022/11/09 12:40:25;;;;;;;;;;;18.00;99.90;;;;;;5045534;28;19935;-78
2022/11/09 12:43:14;;;;;;;;;;;17.80;99.90;;;;;;5049505;28;20336;-79
2022/11/09 12:46:01;;;;;;;;;;;17.80;99.90;;;;;;5044736;28;19936;-79
2022/11/09 12:48:48;;;;;;;;;;;17.60;99.90;;;;;;5052139;28;19963;-79
2022/11/09 12:51:34;;;;;;;;;;;17.60;99.90;;;;;;5050093;28;19952;-78
2022/11/09 12:54:20;;;;;;;;;;;17.50;99.90;;;;;;5041045;28;20003;-78
2022/11/09 12:57:08;;;;;;;;;;;17.40;99.90;;;;;;5043524;28;19931;-77
2022/11/09 12:59:54;;;;;;;;;;;17.40;99.90;;;;;;5048614;28;20177;-80
2022/11/09 13:02:43;;;;;;;;;;;17.40;99.90;;;;;;5047775;28;19940;-78
2022/11/09 13:05:30;;;;;;;;;;;17.40;99.90;;;;;;5045379;28;19959;-77
2022/11/09 13:08:18;;;;;;;;;;;17.40;99.90;;;;;;5048382;28;19971;-79
2022/11/09 13:11:07;;;;;;;;;;;17.40;99.90;;;;;;5048077;28;19940;-79
2022/11/09 13:14:14;;;;;;;;;;;17.50;99.90;;;;;;5046137;28;20524;-80
2022/11/09 13:17:01;;;;;;;;;;;17.30;99.90;;;;;;5049481;28;19936;-77
2022/11/09 13:19:53;;;;;;;;;;;17.30;99.90;;;;;;5037663;28;19986;-78
2022/11/09 13:22:58;;;;;;;;;;;17.20;99.90;;;;;;5041332;28;19990;-80
2022/11/09 13:25:49;;;;;;;;;;;17.20;99.90;;;;;;5049765;28;19940;-77
2022/11/09 13:28:56;;;;;;;;;;;17.30;99.90;;;;;;5047275;28;19936;-78
2022/11/09 13:32:03;;;;;;;;;;;17.30;99.90;;;;;;5049382;28;19983;-78
2022/11/09 13:34:53;;;;;;;;;;;17.30;99.90;;;;;;5041565;28;19936;-78
2022/11/09 13:37:48;;;;;;;;;;;17.40;99.90;;;;;;5045677;28;20339;-77
2022/11/09 13:40:44;;;;;;;;;;;17.50;99.90;;;;;;5049970;28;19936;-78
2022/11/09 13:43:30;;;;;;;;;;;17.50;99.90;;;;;;5047788;28;19936;-78
2022/11/09 13:46:24;;;;;;;;;;;17.40;99.90;;;;;;5038730;28;19948;-79
2022/11/09 13:49:24;;;;;;;;;;;17.40;99.90;;;;;;5052936;28;20026;-79
2022/11/09 13:52:40;;;;;;;;;;;17.20;99.90;;;;;;5056368;28;19936;-78
2022/11/09 13:55:29;;;;;;;;;;;17.00;99.90;;;;;;5028778;28;19935;-79
2022/11/09 13:58:24;;;;;;;;;;;16.90;99.90;;;;;;5037659;28;20026;-78
2022/11/09 14:01:24;;;;;;;;;;;16.70;99.90;;;;;;5052374;28;19936;-79
2022/11/09 14:04:18;;;;;;;;;;;16.50;99.90;;;;;;5056457;28;20672;-79
2022/11/09 14:07:05;;;;;;;;;;;16.40;99.90;;;;;;5062040;28;19940;-79
2022/11/09 14:09:55;;;;;;;;;;;16.30;99.90;;;;;;5058999;28;19947;-79
2022/11/09 14:12:46;;;;;;;;;;;16.30;99.90;;;;;;5056111;28;20624;-79
2022/11/09 14:15:38;;;;;;;;;;;16.30;99.90;;;;;;5057414;28;19936;-79
2022/11/09 14:18:31;;;;;;;;;;;16.20;99.90;;;;;;5056485;28;20037;-78
2022/11/09 14:21:22;;;;;;;;;;;16.20;99.90;;;;;;5054501;28;20308;-78
2022/11/09 14:24:14;;;;;;;;;;;16.80;99.90;;;;;;5055324;28;19947;-79
2022/11/09 14:27:01;;;;;;;;;;;16.00;99.90;;;;;;5050665;28;19936;-78
2022/11/09 14:29:49;;;;;;;;;;;16.00;99.90;;;;;;5057896;28;19972;-80
2022/11/09 14:32:36;;;;;;;;;;;16.00;99.90;;;;;;5056186;28;20253;-79
2022/11/09 14:35:23;;;;;;;;;;;16.00;99.90;;;;;;5042420;28;20303;-80
2022/11/09 14:38:16;;;;;;;;;;;16.00;99.90;;;;;;5051115;28;19952;-79
2022/11/09 14:41:02;;;;;;;;;;;17.80;99.90;;;;;;5060434;28;19932;-81
2022/11/09 14:43:49;;;;;;;;;;;16.10;99.90;;;;;;5052639;28;19986;-80
2022/11/09 14:46:36;;;;;;;;;;;16.10;99.90;;;;;;5048539;28;19936;-80
2022/11/09 14:49:22;;;;;;;;;;;16.10;99.90;;;;;;5056937;28;19986;-79
2022/11/09 14:52:09;;;;;;;;;;;16.00;99.90;;;;;;5053620;28;19919;-79
2022/11/09 14:54:55;;;;;;;;;;;15.90;99.90;;;;;;5050345;28;19944;-79
2022/11/09 14:57:40;;;;;;;;;;;15.70;99.90;;;;;;5051061;28;19947;-79